sensor_id;sensor_type;location;lat;lon;timestamp;pressure;altitude;pressure_sealevel;temperature;humidity
71573;BME280;59408;51.032;9.410;2023-07-30T00:00:53;98384.94;;;15.08;100.00
71573;BME280;59408;51.032;9.410;2023-07-30T00:03:19;98387.25;;;15.02;100.00
71573;BME280;59408;51.032;9.410;2023-07-30T00:05:53;98390.75;;;14.96;100.00
71573;BME280;59408;51.032;9.410;2023-07-30T00:08:20;98383.63;;;14.88;100.00
71573;BME280;59408;51.032;9.410;2023-07-30T00:10:46;98399.69;;;14.82;100.00
71573;BME280;59408;51.032;9.410;2023-07-30T00:13:13;98401.19;;;14.76;100.00
71573;BME280;59408;51.032;9.410;2023-07-30T00:15:40;98409.81;;;14.71;100.00
71573;BME280;59408;51.032;9.410;2023-07-30T00:18:06;98403.91;;;14.65;100.00
71573;BME280;59408;51.032;9.410;2023-07-30T00:20:34;98403.44;;;14.60;100.00
71573;BME280;59408;51.032;9.410;2023-07-30T00:23:02;98413.56;;;14.52;100.00
71573;BME280;59408;51.032;9.410;2023-07-30T00:25:28;98406.84;;;14.46;100.00
71573;BME280;59408;51.032;9.410;2023-07-30T00:27:55;98406.84;;;14.46;100.00
71573;BME280;59408;51.032;9.410;2023-07-30T00:30:22;98409.94;;;14.41;100.00
71573;BME280;59408;51.032;9.410;2023-07-30T00:32:48;98415.34;;;14.34;100.00
71573;BME280;59408;51.032;9.410;2023-07-30T00:35:15;98419.25;;;14.29;100.00
71573;BME280;59408;51.032;9.410;2023-07-30T00:37:41;98415.69;;;14.25;100.00
71573;BME280;59408;51.032;9.410;2023-07-30T00:40:10;98416.78;;;14.17;100.00
71573;BME280;59408;51.032;9.410;2023-07-30T00:42:37;98416.38;;;14.15;100.00
71573;BME280;59408;51.032;9.410;2023-07-30T00:45:04;98415.16;;;14.13;100.00
71573;BME280;59408;51.032;9.410;2023-07-30T00:47:31;98414.72;;;14.07;100.00
71573;BME280;59408;51.032;9.410;2023-07-30T00:49:58;98417.03;;;14.02;100.00
71573;BME280;59408;51.032;9.410;2023-07-30T00:52:25;98408.00;;;14.01;100.00
71573;BME280;59408;51.032;9.410;2023-07-30T00:54:54;98417.34;;;13.96;100.00
71573;BME280;59408;51.032;9.410;2023-07-30T00:57:25;98409.88;;;13.93;100.00
71573;BME280;59408;51.032;9.410;2023-07-30T00:59:52;98418.06;;;13.90;100.00
71573;BME280;59408;51.032;9.410;2023-07-30T01:02:21;98416.06;;;13.87;100.00
71573;BME280;59408;51.032;9.410;2023-07-30T01:04:48;98411.38;;;13.84;100.00
71573;BME280;59408;51.032;9.410;2023-07-30T01:07:15;98412.09;;;13.81;100.00
71573;BME280;59408;51.032;9.410;2023-07-30T01:09:41;98419.13;;;13.78;100.00
71573;BME280;59408;51.032;9.410;2023-07-30T01:12:08;98419.09;;;13.75;100.00
71573;BME280;59408;51.032;9.410;2023-07-30T01:14:37;98421.38;;;13.69;100.00
71573;BME280;59408;51.032;9.410;2023-07-30T01:17:04;98420.56;;;13.65;100.00
71573;BME280;59408;51.032;9.410;2023-07-30T01:19:30;98431.03;;;13.59;100.00
71573;BME280;59408;51.032;9.410;2023-07-30T01:21:59;98438.44;;;13.55;100.00
71573;BME280;59408;51.032;9.410;2023-07-30T01:24:25;98440.34;;;13.51;100.00
71573;BME280;59408;51.032;9.410;2023-07-30T01:26:55;98461.03;;;13.49;100.00
71573;BME280;59408;51.032;9.410;2023-07-30T01:29:26;98445.72;;;13.44;100.00
71573;BME280;59408;51.032;9.410;2023-07-30T01:31:56;98449.19;;;13.41;100.00
71573;BME280;59408;51.032;9.410;2023-07-30T01:34:24;98452.69;;;13.38;100.00
71573;BME280;59408;51.032;9.410;2023-07-30T01:36:53;98459.31;;;13.37;100.00
71573;BME280;59408;51.032;9.410;2023-07-30T01:39:24;98460.78;;;13.31;100.00
71573;BME280;59408;51.032;9.410;2023-07-30T01:41:53;98457.59;;;13.26;100.00
71573;BME280;59408;51.032;9.410;2023-07-30T01:44:19;98467.66;;;13.18;100.00
71573;BME280;59408;51.032;9.410;2023-07-30T01:46:46;98469.97;;;13.16;100.00
71573;BME280;59408;51.032;9.410;2023-07-30T01:49:13;98475.53;;;13.23;100.00
71573;BME280;59408;51.032;9.410;2023-07-30T01:51:39;98475.31;;;13.35;100.00
71573;BME280;59408;51.032;9.410;2023-07-30T01:54:06;98474.75;;;13.49;100.00
71573;BME280;59408;51.032;9.410;2023-07-30T01:56:34;98483.34;;;13.47;100.00
71573;BME280;59408;51.032;9.410;2023-07-30T01:59:00;98485.91;;;13.63;100.00
71573;BME280;59408;51.032;9.410;2023-07-30T02:01:27;98491.69;;;13.58;100.00
71573;BME280;59408;51.032;9.410;2023-07-30T02:03:54;98476.69;;;13.48;100.00
71573;BME280;59408;51.032;9.410;2023-07-30T02:06:20;98479.81;;;13.47;100.00
71573;BME280;59408;51.032;9.410;2023-07-30T02:08:47;98482.59;;;13.50;100.00
71573;BME280;59408;51.032;9.410;2023-07-30T02:11:13;98482.31;;;13.59;100.00
71573;BME280;59408;51.032;9.410;2023-07-30T02:13:41;98481.22;;;13.64;100.00
71573;BME280;59408;51.032;9.410;2023-07-30T02:16:08;98476.19;;;13.69;100.00
71573;BME280;59408;51.032;9.410;2023-07-30T02:18:34;98473.44;;;13.69;100.00
71573;BME280;59408;51.032;9.410;2023-07-30T02:21:01;98476.22;;;13.73;100.00
71573;BME280;59408;51.032;9.410;2023-07-30T02:23:28;98474.38;;;13.80;100.00
71573;BME280;59408;51.032;9.410;2023-07-30T02:25:54;98476.47;;;13.94;100.00
71573;BME280;59408;51.032;9.410;2023-07-30T02:28:21;98471.81;;;13.98;100.00
71573;BME280;59408;51.032;9.410;2023-07-30T02:30:49;98472.66;;;14.02;100.00
71573;BME280;59408;51.032;9.410;2023-07-30T02:33:15;98478.97;;;14.06;100.00
71573;BME280;59408;51.032;9.410;2023-07-30T02:35:43;98478.97;;;14.06;100.00
71573;BME280;59408;51.032;9.410;2023-07-30T02:38:09;98476.59;;;14.05;100.00
71573;BME280;59408;51.032;9.410;2023-07-30T02:40:36;98476.16;;;14.03;100.00
71573;BME280;59408;51.032;9.410;2023-07-30T02:43:03;98466.47;;;14.09;100.00
71573;BME280;59408;51.032;9.410;2023-07-30T02:45:29;98477.81;;;14.07;100.00
71573;BME280;59408;51.032;9.410;2023-07-30T02:47:57;98480.53;;;14.07;100.00
71573;BME280;59408;51.032;9.410;2023-07-30T02:50:24;98489.13;;;14.02;100.00
71573;BME280;59408;51.032;9.410;2023-07-30T02:52:51;98482.44;;;14.03;100.00
71573;BME280;59408;51.032;9.410;2023-07-30T02:55:17;98480.91;;;14.06;100.00
71573;BME280;59408;51.032;9.410;2023-07-30T02:57:44;98484.06;;;14.08;100.00
71573;BME280;59408;51.032;9.410;2023-07-30T03:00:11;98495.84;;;14.12;100.00
71573;BME280;59408;51.032;9.410;2023-07-30T03:02:38;98500.97;;;14.13;100.00
71573;BME280;59408;51.032;9.410;2023-07-30T03:05:07;98501.06;;;14.20;100.00
71573;BME280;59408;51.032;9.410;2023-07-30T03:07:33;98508.91;;;14.22;100.00
71573;BME280;59408;51.032;9.410;2023-07-30T03:10:00;98509.69;;;14.22;100.00
71573;BME280;59408;51.032;9.410;2023-07-30T03:12:27;98511.69;;;14.25;100.00
71573;BME280;59408;51.032;9.410;2023-07-30T03:14:53;98516.44;;;14.28;100.00
71573;BME280;59408;51.032;9.410;2023-07-30T03:17:20;98519.19;;;14.28;100.00
71573;BME280;59408;51.032;9.410;2023-07-30T03:19:47;98529.38;;;14.28;100.00
71573;BME280;59408;51.032;9.410;2023-07-30T03:22:15;98522.31;;;14.30;100.00
71573;BME280;59408;51.032;9.410;2023-07-30T03:24:41;98524.25;;;14.26;100.00
71573;BME280;59408;51.032;9.410;2023-07-30T03:27:08;98523.88;;;14.28;100.00
71573;BME280;59408;51.032;9.410;2023-07-30T03:29:35;98534.81;;;14.24;100.00
71573;BME280;59408;51.032;9.410;2023-07-30T03:32:01;98529.25;;;14.21;100.00
71573;BME280;59408;51.032;9.410;2023-07-30T03:34:28;98526.06;;;14.15;100.00
71573;BME280;59408;51.032;9.410;2023-07-30T03:36:54;98526.88;;;14.16;100.00
71573;BME280;59408;51.032;9.410;2023-07-30T03:39:23;98524.13;;;14.16;100.00
71573;BME280;59408;51.032;9.410;2023-07-30T03:41:50;98529.63;;;14.16;100.00
71573;BME280;59408;51.032;9.410;2023-07-30T03:44:16;98525.63;;;14.10;100.00
71573;BME280;59408;51.032;9.410;2023-07-30T03:46:43;98528.41;;;14.13;100.00
71573;BME280;59408;51.032;9.410;2023-07-30T03:49:10;98539.78;;;14.15;100.00
71573;BME280;59408;51.032;9.410;2023-07-30T03:51:37;98541.78;;;14.18;100.00
71573;BME280;59408;51.032;9.410;2023-07-30T03:54:04;98539.84;;;14.19;100.00
71573;BME280;59408;51.032;9.410;2023-07-30T03:56:32;98548.06;;;14.19;100.00
71573;BME280;59408;51.032;9.410;2023-07-30T03:58:59;98548.47;;;14.21;100.00
71573;BME280;59408;51.032;9.410;2023-07-30T04:01:25;98547.69;;;14.20;100.00
71573;BME280;59408;51.032;9.410;2023-07-30T04:03:52;98553.19;;;14.20;100.00
71573;BME280;59408;51.032;9.410;2023-07-30T04:06:18;98548.06;;;14.19;100.00
71573;BME280;59408;51.032;9.410;2023-07-30T04:08:45;98546.50;;;14.21;100.00
71573;BME280;59408;51.032;9.410;2023-07-30T04:11:12;98550.09;;;14.25;100.00
71573;BME280;59408;51.032;9.410;2023-07-30T04:13:39;98552.47;;;14.27;100.00
71573;BME280;59408;51.032;9.410;2023-07-30T04:16:06;98550.97;;;14.33;100.00
71573;BME280;59408;51.032;9.410;2023-07-30T04:18:33;98552.97;;;14.36;100.00
71573;BME280;59408;51.032;9.410;2023-07-30T04:21:00;98552.19;;;14.39;100.00
71573;BME280;59408;51.032;9.410;2023-07-30T04:23:26;98564.75;;;14.40;100.00
71573;BME280;59408;51.032;9.410;2023-07-30T04:25:53;98563.97;;;14.40;100.00
71573;BME280;59408;51.032;9.410;2023-07-30T04:28:19;98567.09;;;14.38;100.00
71573;BME280;59408;51.032;9.410;2023-07-30T04:30:47;98563.59;;;14.41;100.00
71573;BME280;59408;51.032;9.410;2023-07-30T04:33:14;98571.13;;;14.48;100.00
71573;BME280;59408;51.032;9.410;2023-07-30T04:35:41;98567.69;;;14.54;100.00
71573;BME280;59408;51.032;9.410;2023-07-30T04:38:07;98572.50;;;14.64;100.00
71573;BME280;59408;51.032;9.410;2023-07-30T04:40:34;98559.22;;;14.70;100.00
71573;BME280;59408;51.032;9.410;2023-07-30T04:43:00;98564.03;;;14.80;100.00
71573;BME280;59408;51.032;9.410;2023-07-30T04:45:27;98566.81;;;14.84;100.00
71573;BME280;59408;51.032;9.410;2023-07-30T04:47:55;98572.38;;;14.94;100.00
71573;BME280;59408;51.032;9.410;2023-07-30T04:50:22;98564.22;;;15.01;100.00
71573;BME280;59408;51.032;9.410;2023-07-30T04:52:49;98557.94;;;15.04;100.00
71573;BME280;59408;51.032;9.410;2023-07-30T04:55:15;98563.47;;;15.08;100.00
71573;BME280;59408;51.032;9.410;2023-07-30T04:57:42;98567.44;;;15.11;100.00
71573;BME280;59408;51.032;9.410;2023-07-30T05:00:10;98561.53;;;15.12;100.00
71573;BME280;59408;51.032;9.410;2023-07-30T05:02:36;98558.03;;;15.15;100.00
71573;BME280;59408;51.032;9.410;2023-07-30T05:05:05;98557.72;;;15.24;100.00
71573;BME280;59408;51.032;9.410;2023-07-30T05:07:31;98552.69;;;15.33;100.00
71573;BME280;59408;51.032;9.410;2023-07-30T05:09:58;98557.50;;;15.46;100.00
71573;BME280;59408;51.032;9.410;2023-07-30T05:12:25;98547.75;;;15.56;100.00
71573;BME280;59408;51.032;9.410;2023-07-30T05:14:52;98555.69;;;15.65;100.00
71573;BME280;59408;51.032;9.410;2023-07-30T05:17:18;98551.78;;;15.76;100.00
71573;BME280;59408;51.032;9.410;2023-07-30T05:19:45;98544.75;;;15.86;100.00
71573;BME280;59408;51.032;9.410;2023-07-30T05:22:13;98551.53;;;15.99;100.00
71573;BME280;59408;51.032;9.410;2023-07-30T05:24:40;98544.50;;;16.09;100.00
71573;BME280;59408;51.032;9.410;2023-07-30T05:27:06;98540.19;;;16.18;100.00
71573;BME280;59408;51.032;9.410;2023-07-30T05:29:33;98530.75;;;16.23;100.00
71573;BME280;59408;51.032;9.410;2023-07-30T05:32:00;98529.59;;;16.24;100.00
71573;BME280;59408;51.032;9.410;2023-07-30T05:34:27;98533.16;;;16.28;100.00
71573;BME280;59408;51.032;9.410;2023-07-30T05:36:53;98528.03;;;16.30;99.63
71573;BME280;59408;51.032;9.410;2023-07-30T05:39:21;98529.59;;;16.31;98.35
71573;BME280;59408;51.032;9.410;2023-07-30T05:41:48;98526.84;;;16.31;96.75
71573;BME280;59408;51.032;9.410;2023-07-30T05:44:14;98524.91;;;16.35;94.71
71573;BME280;59408;51.032;9.410;2023-07-30T05:46:41;98517.47;;;16.46;94.17
71573;BME280;59408;51.032;9.410;2023-07-30T05:49:08;98524.50;;;16.40;91.61
71573;BME280;59408;51.032;9.410;2023-07-30T05:51:34;98519.81;;;16.44;90.79
71573;BME280;59408;51.032;9.410;2023-07-30T05:54:01;98525.69;;;16.36;90.02
71573;BME280;59408;51.032;9.410;2023-07-30T05:56:29;98524.88;;;16.25;90.59
71573;BME280;59408;51.032;9.410;2023-07-30T05:58:56;98526.03;;;16.16;91.45
71573;BME280;59408;51.032;9.410;2023-07-30T06:01:22;98530.75;;;16.16;90.38
71573;BME280;59408;51.032;9.410;2023-07-30T06:03:49;98526.84;;;16.24;91.98
71573;BME280;59408;51.032;9.410;2023-07-30T06:06:16;98527.25;;;16.30;91.93
71573;BME280;59408;51.032;9.410;2023-07-30T06:08:43;98537.09;;;16.34;91.71
71573;BME280;59408;51.032;9.410;2023-07-30T06:11:09;98535.16;;;16.49;92.07
71573;BME280;59408;51.032;9.410;2023-07-30T06:13:37;98534.38;;;16.59;91.38
71573;BME280;59408;51.032;9.410;2023-07-30T06:16:04;98528.16;;;16.66;90.19
71573;BME280;59408;51.032;9.410;2023-07-30T06:18:31;98534.44;;;16.77;89.44
71573;BME280;59408;51.032;9.410;2023-07-30T06:20:57;98540.75;;;16.88;88.43
71573;BME280;59408;51.032;9.410;2023-07-30T06:23:24;98534.06;;;16.96;88.93
71573;BME280;59408;51.032;9.410;2023-07-30T06:25:50;98530.53;;;16.99;86.63
71573;BME280;59408;51.032;9.410;2023-07-30T06:28:17;98536.81;;;17.14;86.64
71573;BME280;59408;51.032;9.410;2023-07-30T06:30:45;98533.66;;;17.29;87.39
71573;BME280;59408;51.032;9.410;2023-07-30T06:33:12;98528.13;;;17.40;84.36
71573;BME280;59408;51.032;9.410;2023-07-30T06:35:38;98529.28;;;17.53;83.50
71573;BME280;59408;51.032;9.410;2023-07-30T06:38:06;98531.25;;;17.56;82.75
71573;BME280;59408;51.032;9.410;2023-07-30T06:40:32;98532.44;;;17.66;83.40
71573;BME280;59408;51.032;9.410;2023-07-30T06:42:59;98537.16;;;17.73;83.36
71573;BME280;59408;51.032;9.410;2023-07-30T06:45:25;98543.00;;;17.89;82.78
71573;BME280;59408;51.032;9.410;2023-07-30T06:47:53;98538.19;;;18.07;81.89
71573;BME280;59408;51.032;9.410;2023-07-30T06:50:20;98549.31;;;17.86;81.32
71573;BME280;59408;51.032;9.410;2023-07-30T06:52:47;98553.69;;;17.83;82.92
71573;BME280;59408;51.032;9.410;2023-07-30T06:55:14;98556.47;;;17.69;83.94
71573;BME280;59408;51.032;9.410;2023-07-30T06:57:41;98561.59;;;17.74;83.66
71573;BME280;59408;51.032;9.410;2023-07-30T07:00:08;98555.25;;;17.77;83.99
71573;BME280;59408;51.032;9.410;2023-07-30T07:02:35;98572.56;;;17.92;84.02
71573;BME280;59408;51.032;9.410;2023-07-30T07:05:03;98567.78;;;18.10;85.55
71573;BME280;59408;51.032;9.410;2023-07-30T07:07:30;98566.63;;;17.97;84.67
71573;BME280;59408;51.032;9.410;2023-07-30T07:09:57;98571.75;;;17.95;84.99
71573;BME280;59408;51.032;9.410;2023-07-30T07:12:23;98573.78;;;17.80;84.21
71573;BME280;59408;51.032;9.410;2023-07-30T07:14:50;98573.00;;;17.73;83.67
71573;BME280;59408;51.032;9.410;2023-07-30T07:17:16;98565.91;;;17.75;84.26
71573;BME280;59408;51.032;9.410;2023-07-30T07:19:43;98573.72;;;17.98;84.27
71573;BME280;59408;51.032;9.410;2023-07-30T07:22:11;98578.41;;;18.04;79.67
71573;BME280;59408;51.032;9.410;2023-07-30T07:24:38;98575.25;;;18.10;78.78
71573;BME280;59408;51.032;9.410;2023-07-30T07:27:05;98580.72;;;18.27;78.17
71573;BME280;59408;51.032;9.410;2023-07-30T07:29:31;98578.63;;;18.53;78.18
71573;BME280;59408;51.032;9.410;2023-07-30T07:31:58;98570.78;;;18.48;75.49
71573;BME280;59408;51.032;9.410;2023-07-30T07:34:25;98581.91;;;18.30;77.87
71573;BME280;59408;51.032;9.410;2023-07-30T07:36:51;98581.03;;;18.47;77.83
71573;BME280;59408;51.032;9.410;2023-07-30T07:39:19;98579.00;;;18.58;76.23
71573;BME280;59408;51.032;9.410;2023-07-30T07:41:46;98580.56;;;18.59;78.83
71573;BME280;59408;51.032;9.410;2023-07-30T07:44:12;98576.28;;;18.55;76.16
71573;BME280;59408;51.032;9.410;2023-07-30T07:46:40;98579.38;;;18.60;75.54
71573;BME280;59408;51.032;9.410;2023-07-30T07:49:07;98578.53;;;18.70;75.05
71573;BME280;59408;51.032;9.410;2023-07-30T07:51:34;98572.59;;;18.75;76.02
71573;BME280;59408;51.032;9.410;2023-07-30T07:54:01;98571.34;;;18.84;75.75
71573;BME280;59408;51.032;9.410;2023-07-30T07:56:29;98569.28;;;18.98;72.90
71573;BME280;59408;51.032;9.410;2023-07-30T07:58:56;98572.84;;;18.95;72.16
71573;BME280;59408;51.032;9.410;2023-07-30T08:01:23;98583.59;;;18.83;73.91
71573;BME280;59408;51.032;9.410;2023-07-30T08:03:50;98578.81;;;18.90;74.19
71573;BME280;59408;51.032;9.410;2023-07-30T08:06:17;98572.13;;;19.39;73.99
71573;BME280;59408;51.032;9.410;2023-07-30T08:08:44;98573.41;;;19.69;74.01
71573;BME280;59408;51.032;9.410;2023-07-30T08:11:10;98575.88;;;19.97;71.82
71573;BME280;59408;51.032;9.410;2023-07-30T08:13:38;98579.00;;;20.03;69.42
71573;BME280;59408;51.032;9.410;2023-07-30T08:16:05;98586.06;;;20.07;69.80
71573;BME280;59408;51.032;9.410;2023-07-30T08:18:31;98593.13;;;20.12;69.00
71573;BME280;59408;51.032;9.410;2023-07-30T08:20:59;98574.97;;;20.07;68.74
71573;BME280;59408;51.032;9.410;2023-07-30T08:23:26;98575.38;;;20.06;68.68
71573;BME280;59408;51.032;9.410;2023-07-30T08:25:52;98580.69;;;19.93;70.04
71573;BME280;59408;51.032;9.410;2023-07-30T08:28:19;98580.38;;;19.84;72.07
71573;BME280;59408;51.032;9.410;2023-07-30T08:30:47;98589.59;;;19.70;70.62
71573;BME280;59408;51.032;9.410;2023-07-30T08:33:14;98584.06;;;19.74;73.03
71573;BME280;59408;51.032;9.410;2023-07-30T08:35:40;98595.63;;;19.62;71.28
71573;BME280;59408;51.032;9.410;2023-07-30T08:38:07;98598.63;;;19.37;73.48
71573;BME280;59408;51.032;9.410;2023-07-30T08:40:34;98596.78;;;19.12;73.05
71573;BME280;59408;51.032;9.410;2023-07-30T08:43:02;98606.44;;;18.90;75.73
71573;BME280;59408;51.032;9.410;2023-07-30T08:45:29;98593.53;;;18.69;75.40
71573;BME280;59408;51.032;9.410;2023-07-30T08:47:57;98601.16;;;18.48;76.35
71573;BME280;59408;51.032;9.410;2023-07-30T08:50:24;98598.44;;;18.37;77.49
71573;BME280;59408;51.032;9.410;2023-07-30T08:52:52;98596.94;;;18.08;78.02
71573;BME280;59408;51.032;9.410;2023-07-30T08:55:19;98591.88;;;17.92;79.43
71573;BME280;59408;51.032;9.410;2023-07-30T08:57:47;98596.25;;;17.79;79.54
71573;BME280;59408;51.032;9.410;2023-07-30T09:00:15;98599.03;;;17.72;80.74
71573;BME280;59408;51.032;9.410;2023-07-30T09:02:46;98600.22;;;17.63;81.62
71573;BME280;59408;51.032;9.410;2023-07-30T09:05:15;98595.88;;;17.62;81.89
71573;BME280;59408;51.032;9.410;2023-07-30T09:07:42;98591.56;;;17.65;81.41
71573;BME280;59408;51.032;9.410;2023-07-30T09:10:09;98594.69;;;17.71;82.10
71573;BME280;59408;51.032;9.410;2023-07-30T09:12:36;98595.84;;;17.84;82.46
71573;BME280;59408;51.032;9.410;2023-07-30T09:15:03;98595.06;;;17.76;83.23
71573;BME280;59408;51.032;9.410;2023-07-30T09:17:30;98595.44;;;17.82;81.72
71573;BME280;59408;51.032;9.410;2023-07-30T09:19:59;98589.94;;;17.67;81.41
71573;BME280;59408;51.032;9.410;2023-07-30T09:22:28;98595.09;;;17.58;82.42
71573;BME280;59408;51.032;9.410;2023-07-30T09:24:55;98597.06;;;17.61;83.26
71573;BME280;59408;51.032;9.410;2023-07-30T09:27:22;98602.56;;;17.54;81.49
71573;BME280;59408;51.032;9.410;2023-07-30T09:29:51;98596.25;;;17.57;83.01
71573;BME280;59408;51.032;9.410;2023-07-30T09:32:18;98595.09;;;17.55;80.58
71573;BME280;59408;51.032;9.410;2023-07-30T09:34:45;98587.97;;;17.54;81.65
71573;BME280;59408;51.032;9.410;2023-07-30T09:37:12;98602.56;;;17.61;80.37
71573;BME280;59408;51.032;9.410;2023-07-30T09:39:40;98600.63;;;17.62;77.83
71573;BME280;59408;51.032;9.410;2023-07-30T09:42:07;98604.94;;;17.63;78.07
71573;BME280;59408;51.032;9.410;2023-07-30T09:44:36;98597.06;;;17.65;79.78
71573;BME280;59408;51.032;9.410;2023-07-30T09:47:04;98601.00;;;17.60;78.24
71573;BME280;59408;51.032;9.410;2023-07-30T09:49:31;98600.19;;;17.67;77.76
71573;BME280;59408;51.032;9.410;2023-07-30T09:51:57;98602.97;;;17.56;78.26
71573;BME280;59408;51.032;9.410;2023-07-30T09:54:24;98601.78;;;17.64;78.49
71573;BME280;59408;51.032;9.410;2023-07-30T09:56:52;98615.16;;;17.52;77.39
71573;BME280;59408;51.032;9.410;2023-07-30T09:59:19;98608.06;;;17.40;76.72
71573;BME280;59408;51.032;9.410;2023-07-30T10:01:47;98610.06;;;17.36;78.83
71573;BME280;59408;51.032;9.410;2023-07-30T10:04:15;98605.31;;;17.51;77.26
71573;BME280;59408;51.032;9.410;2023-07-30T10:06:49;98599.81;;;17.54;76.90
71573;BME280;59408;51.032;9.410;2023-07-30T10:09:19;98613.59;;;17.68;75.43
71573;BME280;59408;51.032;9.410;2023-07-30T10:11:46;98609.66;;;17.73;75.52
71573;BME280;59408;51.032;9.410;2023-07-30T10:14:21;98616.38;;;17.58;76.04
71573;BME280;59408;51.032;9.410;2023-07-30T10:16:53;98609.31;;;17.57;76.60
71573;BME280;59408;51.032;9.410;2023-07-30T10:19:23;98616.75;;;17.42;77.13
71573;BME280;59408;51.032;9.410;2023-07-30T10:21:51;98621.47;;;17.27;77.96
71573;BME280;59408;51.032;9.410;2023-07-30T10:24:18;98620.28;;;17.25;79.35
71573;BME280;59408;51.032;9.410;2023-07-30T10:26:44;98624.25;;;17.20;80.90
71573;BME280;59408;51.032;9.410;2023-07-30T10:29:17;98634.47;;;17.23;80.69
71573;BME280;59408;51.032;9.410;2023-07-30T10:31:49;98633.25;;;16.92;82.27
71573;BME280;59408;51.032;9.410;2023-07-30T10:34:18;98624.59;;;16.83;82.95
71573;BME280;59408;51.032;9.410;2023-07-30T10:36:46;98636.34;;;16.70;82.36
71573;BME280;59408;51.032;9.410;2023-07-30T10:39:15;98642.16;;;16.50;83.73
71573;BME280;59408;51.032;9.410;2023-07-30T10:41:43;98645.66;;;16.37;85.49
71573;BME280;59408;51.032;9.410;2023-07-30T10:44:21;98653.91;;;16.40;87.00
71573;BME280;59408;51.032;9.410;2023-07-30T10:46:48;98652.22;;;16.21;86.32
71573;BME280;59408;51.032;9.410;2023-07-30T10:49:15;98643.59;;;16.19;87.91
71573;BME280;59408;51.032;9.410;2023-07-30T10:51:42;98649.44;;;16.14;87.34
71573;BME280;59408;51.032;9.410;2023-07-30T10:54:08;98649.53;;;16.32;87.69
71573;BME280;59408;51.032;9.410;2023-07-30T10:56:36;98651.16;;;16.44;87.79
71573;BME280;59408;51.032;9.410;2023-07-30T10:59:04;98653.94;;;16.44;88.32
71573;BME280;59408;51.032;9.410;2023-07-30T11:01:36;98662.91;;;16.27;90.61
71573;BME280;59408;51.032;9.410;2023-07-30T11:04:06;98669.44;;;16.04;93.08
71573;BME280;59408;51.032;9.410;2023-07-30T11:06:32;98686.00;;;15.60;96.37
71573;BME280;59408;51.032;9.410;2023-07-30T11:08:59;98680.19;;;15.25;100.00
71573;BME280;59408;51.032;9.410;2023-07-30T11:11:25;98702.06;;;15.11;100.00
71573;BME280;59408;51.032;9.410;2023-07-30T11:13:52;98700.56;;;14.83;100.00
71573;BME280;59408;51.032;9.410;2023-07-30T11:16:19;98705.34;;;14.90;100.00
71573;BME280;59408;51.032;9.410;2023-07-30T11:18:47;98704.78;;;14.74;100.00
71573;BME280;59408;51.032;9.410;2023-07-30T11:21:15;98711.56;;;14.83;100.00
71573;BME280;59408;51.032;9.410;2023-07-30T11:23:43;98700.91;;;14.78;100.00
71573;BME280;59408;51.032;9.410;2023-07-30T11:26:14;98690.53;;;14.98;100.00
71573;BME280;59408;51.032;9.410;2023-07-30T11:28:41;98700.78;;;15.04;100.00
71573;BME280;59408;51.032;9.410;2023-07-30T11:31:09;98705.19;;;15.13;99.12
71573;BME280;59408;51.032;9.410;2023-07-30T11:33:36;98705.66;;;15.18;100.00
71573;BME280;59408;51.032;9.410;2023-07-30T11:36:07;98709.78;;;15.38;100.00
71573;BME280;59408;51.032;9.410;2023-07-30T11:38:34;98704.28;;;15.82;100.00
71573;BME280;59408;51.032;9.410;2023-07-30T11:41:01;98703.34;;;16.19;100.00
71573;BME280;59408;51.032;9.410;2023-07-30T11:43:28;98708.72;;;16.63;100.00
71573;BME280;59408;51.032;9.410;2023-07-30T11:46:08;98716.31;;;16.91;97.27
71573;BME280;59408;51.032;9.410;2023-07-30T11:48:35;98710.06;;;17.12;94.31
71573;BME280;59408;51.032;9.410;2023-07-30T11:51:02;98692.31;;;16.99;90.37
71573;BME280;59408;51.032;9.410;2023-07-30T11:53:49;98700.63;;;17.20;92.81
71573;BME280;59408;51.032;9.410;2023-07-30T11:56:18;98705.78;;;17.43;91.35
71573;BME280;59408;51.032;9.410;2023-07-30T11:58:45;98718.78;;;17.42;85.63
71573;BME280;59408;51.032;9.410;2023-07-30T12:01:12;98715.59;;;17.33;87.90
71573;BME280;59408;51.032;9.410;2023-07-30T12:03:42;98718.34;;;17.26;81.66
71573;BME280;59408;51.032;9.410;2023-07-30T12:06:09;98719.53;;;17.32;81.46
71573;BME280;59408;51.032;9.410;2023-07-30T12:08:36;98714.84;;;17.43;82.03
71573;BME280;59408;51.032;9.410;2023-07-30T12:11:05;98719.56;;;17.43;83.82
71573;BME280;59408;51.032;9.410;2023-07-30T12:13:32;98723.94;;;17.61;83.08
71573;BME280;59408;51.032;9.410;2023-07-30T12:15:59;98720.03;;;17.84;82.53
71573;BME280;59408;51.032;9.410;2023-07-30T12:18:26;98724.66;;;18.33;84.20
71573;BME280;59408;51.032;9.410;2023-07-30T12:20:53;98717.97;;;18.37;76.77
71573;BME280;59408;51.032;9.410;2023-07-30T12:23:20;98711.66;;;18.33;75.56
71573;BME280;59408;51.032;9.410;2023-07-30T12:25:47;98719.44;;;18.67;76.47
71573;BME280;59408;51.032;9.410;2023-07-30T12:28:15;98715.94;;;18.66;74.86
71573;BME280;59408;51.032;9.410;2023-07-30T12:30:41;98709.69;;;18.37;72.89
71573;BME280;59408;51.032;9.410;2023-07-30T12:33:08;98707.69;;;18.56;73.69
71573;BME280;59408;51.032;9.410;2023-07-30T12:35:36;98706.94;;;19.25;71.13
71573;BME280;59408;51.032;9.410;2023-07-30T12:38:03;98703.75;;;19.30;66.60
71573;BME280;59408;51.032;9.410;2023-07-30T12:40:30;98717.06;;;19.52;68.24
71573;BME280;59408;51.032;9.410;2023-07-30T12:42:56;98714.03;;;19.84;66.73
71573;BME280;59408;51.032;9.410;2023-07-30T12:45:24;98718.47;;;19.75;66.49
71573;BME280;59408;51.032;9.410;2023-07-30T12:47:51;98714.09;;;19.77;64.52
71573;BME280;59408;51.032;9.410;2023-07-30T12:50:17;98709.38;;;20.15;65.03
71573;BME280;59408;51.032;9.410;2023-07-30T12:52:44;98720.06;;;20.17;64.71
71573;BME280;59408;51.032;9.410;2023-07-30T12:55:10;98712.56;;;20.17;62.94